Terminal Aerodrome Forecast
Issued by NWS

Home | Current Version | Previous Version | Graphics & Text | Print | Product List | Glossary On
Versions: 1 2 3 4 5 6 7 8 9 10 11 12 13 14 15 16 17 18
000
FTUS43 KICT 260156 AAA
TAFHUT
TAF AMD
KHUT 260156Z 2602/2624 36016G22KT P6SM VCSH BKN035 OVC080
     FM260400 36016G23KT P6SM VCSH OVC025
     FM261200 36016G23KT P6SM OVC025
     FM261600 35018G26KT P6SM SCT035 BKN150=

USA.gov is the U.S. government's official web portal to all federal, state and local government web resources and services.